x

West Sea Otter (46204) Wave Buoy

9:00am - Mon 20th Nov 2017 All times are PST. -8 hours from GMT.

  • Sig Wave height 5.6ft
  • Peak Period 9s
  • Wind
    11mph, 13mph gusts
  • Sea Temp 50°f
  • Air Temp 44°f
  • Sea Pressure 1004.7mb
  • West Sea Otter
  • West Sea Otter

More Historic Weather Station data

Upgrade to MSW Pro to gain access to the past 30 days of data for over 8000 Wavebouys and Weather Stations around the globe.

Join

Comparision Forecast

View Surf forecast
   
Mon 11/20 9:00am 5.5ft 9s 11 13 mph 1004.7mb 50f 44f
8:00am 6.5ft 9s 11 13 mph 1003.5mb 50f 43f
7:00am 6.5ft 10s 11 13 mph 1002.7mb 50f 44f
6:00am 6ft 9s 11 13 mph 1002.4mb 50f 44f
5:00am 6ft 10s 9 13 mph 1002.1mb 50f 44f
4:00am 6ft 10s 11 13 mph 1001.8mb 49f 44f
3:00am 6.5ft 10s 9 13 mph 1001.8mb 50f 45f
2:00am 6ft 10s 4 9 mph 1001.5mb 49f 45f
1:00am 7ft 10s 2 4 mph 1001.1mb 49f 45f
12:00am 7ft 11s 2 4 mph 1001.1mb 50f 45f
Sun 11/19 11:00pm 7ft 10s 4 9 mph 1000.9mb 50f 45f
10:00pm 7.5ft 8s 7 11 mph 1000.7mb 50f 45f
9:00pm 7.5ft 10s 4 7 mph 1000.6mb 50f 46f
8:00pm 8.5ft 10s 2 7 mph 1000.3mb 50f 46f
7:00pm 8ft 10s 2 4 mph 1000.1mb 50f 46f
6:00pm 8.5ft 10s 4 9 mph 999.9mb 50f 46f
5:00pm 8ft 11s 4 9 mph 999.7mb 50f 45f
4:00pm 9ft 10s 9 13 mph 999.6mb 50f 46f
3:00pm 8ft 11s 7 9 mph 999.5mb 50f 46f
2:00pm 8.5ft 11s 9 11 mph 999.5mb 50f 46f
1:00pm 9ft 10s 11 13 mph 999.6mb 50f 46f
12:00pm 9ft 10s 11 13 mph 1000.1mb 50f 47f
11:00am 9.5ft 10s 13 18 mph 1000.2mb 50f 47f
10:00am 10ft 10s 13 18 mph 1000.3mb 50f 47f
9:00am 11ft 10s 16 18 mph 1000.2mb 50f 47f
8:00am 12ft 11s 16 20 mph 1000.1mb 50f 47f
7:00am 10ft 10s 18 22 mph 1000mb 50f 47f
6:00am 12.5ft 10s 18 22 mph 999.6mb 50f 47f
4:00am 10ft 10s 16 22 mph 998.9mb 50f 47f
3:00am 10.5ft 11s 11 13 mph 999mb 50f 47f
2:00am 11ft 10s 9 13 mph 999.2mb 50f 48f
1:00am 11.5ft 10s 9 11 mph 999.2mb 50f 48f
12:00am 11ft 10s 13 18 mph 999.6mb 50f 49f
Sat 11/18 11:00pm 13.5ft 10s 11 16 mph 999.9mb 50f 49f
10:00pm 14.5ft 10s 9 13 mph 1000.6mb 50f 50f
9:00pm 14ft 9s 22 27 mph 1001mb 50f 51f
8:00pm 14.5ft 9s 22 29 mph 1001.3mb 50f 51f
7:00pm 15ft 9s 29 38 mph 1001.5mb 50f 51f
6:00pm 15.5ft 8s 27 34 mph 1002.1mb 50f 51f
5:00pm 17ft 8s 38
mph
1002.3mb 50f 50f
4:00pm 15.5ft 9s 40 54 mph 1002.6mb 50f 50f
3:00pm 15ft 8s 40 54 mph 1003.4mb 50f 49f
2:00pm 14.5ft 8s 40 54 mph 1004.1mb 50f 50f
1:00pm 13ft 8s 34 45 mph 1006.6mb 50f 50f
12:00pm 13ft 7s 36 43 mph 1007.8mb 50f 50f
11:00am 13ft 7s 36 45 mph 1008.6mb 50f 50f
10:00am 12ft 7s 36 43 mph 1008.8mb 50f 50f
9:00am 11.5ft 10s 31 40 mph 1009.7mb 50f 50f
8:00am 11.5ft 10s 31 40 mph 1010.2mb 50f 49f
7:00am 13ft 9s 27 34 mph 1010.8mb 50f 49f
6:00am 12ft 10s 31 40 mph 1010.8mb 50f 49f
5:00am 13.5ft 8s 27 36 mph 1011.6mb 50f 49f
4:00am 13ft 10s 29 36 mph 1011.8mb 50f 49f
3:00am 11.5ft 8s 29 36 mph 1012.4mb 50f 49f
2:00am 11ft 7s 31 38 mph 1012.1mb 50f 50f
1:00am 11ft 7s 31 38 mph 1012.5mb 50f 49f
12:00am 9.5ft 6s 31 40 mph 1012.7mb 50f 50f
Fri 11/17 11:00pm 9ft 7s 31 38 mph 1012.6mb 50f 49f
10:00pm 9.5ft 6s 31 40 mph 1012.7mb 50f 49f
9:00pm 8ft 6s 31 38 mph 1013mb 50f 49f
8:00pm 7.5ft 5s 29 36 mph 1013.1mb 50f 49f
7:00pm 7.5ft 5s 25 31 mph 1013.3mb 49f 48f
6:00pm 7ft 6s 27 31 mph 1013.3mb 50f 48f
5:00pm 6.5ft 6s 31 36 mph 1013mb 50f 48f
4:00pm 6ft 5s 27 36 mph 1013.3mb 49f 48f
3:00pm 6ft 5s 25 31 mph 1013.1mb 50f 47f
2:00pm 5ft 5s 27 34 mph 1013mb 50f 46f
1:00pm 4.5ft 4s 25 29 mph 1013.3mb 50f 46f
12:00pm 3.5ft 7s 22 27 mph 1013mb 50f 47f
11:00am 3.5ft 7s 18 22 mph 1013.3mb 50f 46f
10:00am 3.5ft 8s 13 18 mph 1012.7mb 49f 45f
9:00am 3.5ft 7s 9 13 mph 1012.8mb 50f 44f
8:00am 3.5ft 8s 7 9 mph 1012mb 50f 44f
7:00am 3.5ft 8s 4 7 mph 1011.5mb 49f 43f
6:00am 3ft 7s 2 4 mph 1011mb 49f 42f
5:00am 3.5ft 9s 2 4 mph 1010.4mb 50f 43f
4:00am 3.5ft 8s 4 7 mph 1009.9mb 50f 43f
3:00am 3.5ft 7s 4 9 mph 1009.4mb 50f 43f
2:00am 3.5ft 8s 7 11 mph 1008.5mb 50f 43f
1:00am 4ft 8s 9 13 mph 1007.8mb 49f 43f
12:00am 4ft 8s 11 16 mph 1007mb 49f 43f
Thu 11/16 11:00pm 4ft 8s 9 13 mph 1006.1mb 50f 43f
10:00pm 3.5ft 7s 13 16 mph 1005.4mb 50f 43f
9:00pm 3.5ft 8s 13 16 mph 1004.8mb 49f 43f
8:00pm 3.5ft 8s 13 16 mph 1004.3mb 50f 43f
7:00pm 3.5ft 8s 11 16 mph 1003.8mb 50f 43f